createdAt,value
2023-03-16T00:02:10.715Z,1.20
2023-03-16T00:04:38.333Z,1.70
2023-03-16T00:07:07.416Z,1.92
2023-03-16T00:09:34.724Z,1.48
2023-03-16T00:12:03.526Z,1.48
2023-03-16T00:14:31.858Z,1.55
2023-03-16T00:16:59.221Z,1.90
2023-03-16T00:19:26.369Z,1.83
2023-03-16T00:21:53.593Z,1.73
2023-03-16T00:24:21.073Z,2.03
2023-03-16T00:26:48.925Z,1.45
2023-03-16T00:29:16.110Z,1.98
2023-03-16T00:31:44.309Z,2.00
2023-03-16T00:34:12.536Z,1.77
2023-03-16T00:36:39.941Z,1.92
2023-03-16T00:39:07.543Z,1.58
2023-03-16T00:41:38.349Z,1.88
2023-03-16T00:44:06.133Z,1.90
2023-03-16T00:46:33.568Z,1.95
2023-03-16T00:49:02.923Z,1.88
2023-03-16T00:51:33.886Z,1.45
2023-03-16T00:54:01.112Z,1.58
2023-03-16T00:56:29.301Z,1.63
2023-03-16T00:58:58.069Z,1.65
2023-03-16T01:01:25.466Z,1.77
2023-03-16T01:03:52.732Z,1.60
2023-03-16T01:06:20.856Z,1.90
2023-03-16T01:08:48.123Z,1.45
2023-03-16T01:11:20.508Z,1.80
2023-03-16T01:13:48.970Z,1.63
2023-03-16T01:16:19.257Z,1.60
2023-03-16T01:18:47.972Z,2.15
2023-03-16T01:21:15.208Z,1.67
2023-03-16T01:23:44.205Z,1.75
2023-03-16T01:26:12.191Z,2.00
2023-03-16T01:28:39.435Z,1.75
2023-03-16T01:31:10.096Z,1.70
2023-03-16T01:36:07.345Z,1.35
2023-03-16T01:38:34.534Z,1.90
2023-03-16T01:41:02.783Z,2.00
2023-03-16T01:43:32.421Z,1.88
2023-03-16T01:46:14.696Z,2.10
2023-03-16T01:49:01.196Z,2.00
2023-03-16T01:51:28.401Z,1.50
2023-03-16T01:54:06.576Z,2.05
2023-03-16T01:56:58.948Z,1.90
2023-03-16T01:59:39.516Z,1.45
2023-03-16T02:02:08.404Z,1.95
2023-03-16T02:05:02.815Z,1.55
2023-03-16T02:07:34.950Z,1.55
2023-03-16T02:10:04.667Z,1.80
2023-03-16T02:12:32.689Z,1.77
2023-03-16T02:14:59.953Z,1.52
2023-03-16T02:17:31.257Z,1.70
2023-03-16T02:20:13.831Z,1.73
2023-03-16T02:22:47.925Z,1.50
2023-03-16T02:25:18.515Z,1.63
2023-03-16T02:30:20.334Z,1.73
2023-03-16T02:32:51.745Z,1.65
2023-03-16T02:35:20.197Z,2.00
2023-03-16T02:37:47.713Z,1.98
2023-03-16T02:40:31.005Z,1.80
2023-03-16T02:43:03.094Z,2.03
2023-03-16T02:45:44.054Z,1.63
2023-03-16T02:48:16.929Z,2.00
2023-03-16T02:50:50.242Z,1.80
2023-03-16T02:53:17.912Z,1.55
2023-03-16T02:55:46.097Z,1.98
2023-03-16T02:58:14.786Z,1.65
2023-03-16T03:00:42.577Z,2.13
2023-03-16T03:03:10.028Z,1.90
2023-03-16T03:05:38.010Z,2.10
2023-03-16T03:08:06.307Z,1.95
2023-03-16T03:10:33.568Z,1.85
2023-03-16T03:13:00.750Z,1.90
2023-03-16T03:15:27.996Z,1.70
2023-03-16T03:17:55.232Z,1.92
2023-03-16T03:20:22.357Z,2.08
2023-03-16T03:22:50.197Z,1.98
2023-03-16T03:25:18.741Z,1.73
2023-03-16T03:27:47.472Z,1.90
2023-03-16T03:30:18.374Z,1.85
2023-03-16T03:32:46.142Z,1.70
2023-03-16T03:35:15.489Z,1.42
2023-03-16T03:37:44.445Z,1.90
2023-03-16T03:40:14.670Z,1.77
2023-03-16T03:42:43.047Z,1.88
2023-03-16T03:45:13.110Z,1.90
2023-03-16T03:47:42.056Z,2.33
2023-03-16T03:50:11.089Z,2.10
2023-03-16T03:52:38.280Z,2.22
2023-03-16T03:55:06.192Z,2.08
2023-03-16T03:57:33.332Z,2.20
2023-03-16T04:00:00.693Z,2.05
2023-03-16T04:02:28.058Z,2.10
2023-03-16T04:04:55.438Z,2.40
2023-03-16T04:07:22.585Z,1.73
2023-03-16T04:09:49.760Z,1.83
2023-03-16T04:12:16.977Z,1.48
2023-03-16T04:14:44.150Z,2.40
2023-03-16T04:17:12.646Z,2.25
2023-03-16T04:19:40.479Z,2.00
2023-03-16T04:22:07.965Z,2.17
2023-03-16T04:24:35.961Z,1.95
2023-03-16T04:27:03.155Z,1.90
2023-03-16T04:29:30.367Z,1.83
2023-03-16T04:31:57.637Z,1.63
2023-03-16T04:34:25.328Z,1.88
2023-03-16T04:36:53.289Z,2.30
2023-03-16T04:39:21.425Z,1.45
2023-03-16T04:41:49.043Z,2.20
2023-03-16T04:44:16.320Z,2.08
2023-03-16T04:46:43.721Z,1.90
2023-03-16T04:49:11.210Z,1.98
2023-03-16T04:51:40.830Z,1.90
2023-03-16T04:54:08.281Z,1.95
2023-03-16T04:56:35.580Z,2.42
2023-03-16T04:59:02.783Z,1.85
2023-03-16T05:01:30.111Z,1.85
2023-03-16T05:03:59.618Z,2.00
2023-03-16T05:06:26.928Z,2.03
2023-03-16T05:08:54.098Z,2.05
2023-03-16T05:11:21.281Z,1.70
2023-03-16T05:13:48.447Z,2.13
2023-03-16T05:16:15.593Z,1.90
2023-03-16T05:18:42.767Z,2.00
2023-03-16T05:21:09.922Z,2.20
2023-03-16T05:23:37.113Z,2.45
2023-03-16T05:26:04.585Z,2.13
2023-03-16T05:28:32.155Z,2.30
2023-03-16T05:30:59.525Z,1.83
2023-03-16T05:33:26.682Z,2.08
2023-03-16T05:35:54.021Z,1.75
2023-03-16T05:38:21.191Z,2.22
2023-03-16T05:40:53.273Z,2.03
2023-03-16T05:43:23.492Z,2.47
2023-03-16T05:45:50.632Z,2.30
2023-03-16T05:48:17.749Z,1.90
2023-03-16T05:50:45.040Z,2.60
2023-03-16T05:53:12.275Z,2.45
2023-03-16T05:55:39.828Z,1.88
2023-03-16T05:58:07.015Z,2.30
2023-03-16T06:00:34.207Z,2.10
2023-03-16T06:03:01.797Z,2.50
2023-03-16T06:05:29.879Z,2.08
2023-03-16T06:07:56.993Z,2.05
2023-03-16T06:10:26.807Z,2.15
2023-03-16T06:12:54.236Z,2.40
2023-03-16T06:15:25.215Z,2.60
2023-03-16T06:17:52.466Z,1.92
2023-03-16T06:20:19.646Z,2.08
2023-03-16T06:22:46.879Z,1.95
2023-03-16T06:25:15.067Z,2.13
2023-03-16T06:27:42.906Z,1.85
2023-03-16T06:30:13.360Z,2.42
2023-03-16T06:32:45.527Z,2.50
2023-03-16T06:35:13.483Z,2.10
2023-03-16T06:37:42.011Z,2.50
2023-03-16T06:40:10.236Z,2.08
2023-03-16T06:42:37.368Z,2.45
2023-03-16T06:45:04.828Z,2.15
2023-03-16T06:47:32.715Z,2.38
2023-03-16T06:49:59.727Z,2.20
2023-03-16T06:52:26.924Z,2.53
2023-03-16T06:54:54.174Z,2.42
2023-03-16T06:57:21.626Z,2.30
2023-03-16T06:59:49.299Z,2.25
2023-03-16T07:02:17.240Z,2.50
2023-03-16T07:04:44.418Z,1.88
2023-03-16T07:07:12.090Z,2.22
2023-03-16T07:09:41.624Z,2.08
2023-03-16T07:12:09.586Z,2.10
2023-03-16T07:14:36.799Z,2.38
2023-03-16T07:17:04.333Z,2.80
2023-03-16T07:19:31.897Z,2.17
2023-03-16T07:21:59.128Z,1.90
2023-03-16T07:24:26.184Z,2.10
2023-03-16T07:26:53.347Z,2.03
2023-03-16T07:29:20.654Z,2.17
2023-03-16T07:31:47.784Z,2.20
2023-03-16T07:34:14.955Z,2.20
2023-03-16T07:36:42.073Z,2.00
2023-03-16T07:39:09.316Z,2.63
2023-03-16T07:41:36.537Z,2.10
2023-03-16T07:44:04.272Z,1.90
2023-03-16T07:46:32.924Z,2.33
2023-03-16T07:49:00.069Z,2.10
2023-03-16T07:51:27.435Z,2.00
2023-03-16T07:53:54.835Z,2.50
2023-03-16T07:56:22.160Z,2.30
2023-03-16T07:58:49.253Z,2.42
2023-03-16T08:01:16.543Z,2.20
2023-03-16T08:03:44.863Z,1.83
2023-03-16T08:06:14.175Z,1.88
2023-03-16T08:08:41.251Z,2.17
2023-03-16T08:11:08.415Z,1.85
2023-03-16T08:13:35.637Z,2.40
2023-03-16T08:16:02.836Z,2.70
2023-03-16T08:18:30.473Z,2.17
2023-03-16T08:20:58.703Z,2.60
2023-03-16T08:23:26.606Z,1.67
2023-03-16T08:25:57.948Z,2.50
2023-03-16T08:28:26.254Z,2.15
2023-03-16T08:30:55.741Z,2.13
2023-03-16T08:33:23.566Z,2.25
2023-03-16T08:35:51.114Z,2.58
2023-03-16T08:38:19.416Z,2.63
2023-03-16T08:40:48.827Z,2.17
2023-03-16T08:43:17.358Z,2.95
2023-03-16T08:45:48.654Z,2.35
2023-03-16T08:48:16.005Z,2.38
2023-03-16T08:50:44.285Z,2.10
2023-03-16T08:53:13.862Z,2.45
2023-03-16T08:55:41.934Z,2.20
2023-03-16T08:58:10.742Z,2.63
2023-03-16T09:00:38.972Z,2.25
2023-03-16T09:03:06.850Z,2.17
2023-03-16T09:05:34.362Z,2.42
2023-03-16T09:08:01.847Z,2.10
2023-03-16T09:10:29.415Z,2.90
2023-03-16T09:12:56.860Z,2.45
2023-03-16T09:15:24.289Z,2.55
2023-03-16T09:17:52.134Z,2.20
2023-03-16T09:20:26.345Z,2.60
2023-03-16T09:22:56.080Z,2.80
2023-03-16T09:25:25.576Z,2.20
2023-03-16T09:27:52.974Z,2.08
2023-03-16T09:30:20.220Z,2.67
2023-03-16T09:32:49.155Z,1.90
2023-03-16T09:35:16.699Z,2.10
2023-03-16T09:38:01.113Z,2.08
2023-03-16T09:40:32.366Z,2.08
2023-03-16T09:43:25.708Z,2.75
2023-03-16T09:45:55.598Z,1.95
2023-03-16T09:48:24.873Z,2.10
2023-03-16T09:50:55.068Z,2.22
2023-03-16T09:56:05.745Z,2.30
2023-03-16T10:01:20.011Z,1.55
2023-03-16T10:03:57.619Z,2.45
2023-03-16T10:06:25.433Z,1.85
2023-03-16T10:08:58.612Z,1.80
2023-03-16T10:11:28.783Z,2.28
2023-03-16T10:14:00.500Z,2.17
2023-03-16T10:16:53.020Z,2.10
2023-03-16T10:19:46.152Z,2.90
2023-03-16T10:22:21.633Z,1.90
2023-03-16T10:25:13.191Z,1.90
2023-03-16T10:27:43.653Z,1.90
2023-03-16T10:30:30.349Z,1.80
2023-03-16T10:33:02.457Z,1.95
2023-03-16T10:36:07.469Z,1.85
2023-03-16T10:38:43.213Z,2.00
2023-03-16T10:41:27.440Z,2.10
2023-03-16T10:44:23.753Z,1.77
2023-03-16T10:47:05.587Z,1.42
2023-03-16T10:49:48.846Z,1.70
2023-03-16T10:52:29.467Z,2.17
2023-03-16T10:55:02.281Z,2.58
2023-03-16T10:57:35.225Z,1.75
2023-03-16T11:00:21.463Z,1.88
2023-03-16T11:02:49.967Z,2.20
2023-03-16T11:05:21.558Z,1.77
2023-03-16T11:08:13.029Z,2.20
2023-03-16T11:10:54.645Z,2.20
2023-03-16T11:13:22.980Z,2.47
2023-03-16T11:15:53.232Z,1.83
2023-03-16T11:18:31.466Z,2.00
2023-03-16T11:21:14.376Z,2.28
2023-03-16T11:23:49.971Z,1.85
2023-03-16T11:26:27.952Z,2.60
2023-03-16T11:29:09.562Z,2.30
2023-03-16T11:31:49.580Z,2.00
2023-03-16T11:34:20.231Z,2.25
2023-03-16T11:39:40.707Z,2.33
2023-03-16T11:42:14.154Z,2.17
2023-03-16T11:45:25.087Z,2.10
2023-03-16T11:48:01.829Z,2.50
2023-03-16T11:51:07.935Z,1.92
2023-03-16T11:54:00.870Z,2.40
2023-03-16T11:56:34.706Z,2.80
2023-03-16T11:59:30.847Z,2.45
2023-03-16T12:02:11.016Z,2.25
2023-03-16T12:05:07.875Z,2.10
2023-03-16T12:08:00.847Z,2.38
2023-03-16T12:10:47.011Z,1.90
2023-03-16T12:13:58.712Z,1.67
2023-03-16T12:16:39.104Z,1.77
2023-03-16T12:19:42.852Z,1.83
2023-03-16T12:22:20.041Z,1.70
2023-03-16T12:24:48.376Z,2.00
2023-03-16T12:27:34.305Z,1.70
2023-03-16T12:30:25.901Z,1.58
2023-03-16T12:33:07.856Z,2.17
2023-03-16T12:35:52.923Z,1.52
2023-03-16T12:38:29.950Z,1.88
2023-03-16T12:41:20.246Z,1.65
2023-03-16T12:44:10.710Z,2.03
2023-03-16T12:46:53.747Z,1.50
2023-03-16T12:49:21.383Z,1.55
2023-03-16T12:52:03.024Z,1.80
2023-03-16T12:54:30.405Z,1.50
2023-03-16T12:57:04.936Z,1.80
2023-03-16T12:59:43.230Z,1.70
2023-03-16T13:02:32.176Z,0.73
2023-03-16T13:05:10.810Z,1.55
2023-03-16T13:07:46.682Z,1.20
2023-03-16T13:10:16.723Z,1.60
2023-03-16T13:12:44.561Z,1.52
2023-03-16T13:15:29.949Z,1.70
2023-03-16T13:18:04.905Z,1.45
2023-03-16T13:20:35.343Z,1.48
2023-03-16T13:26:00.743Z,1.48
2023-03-16T13:28:31.914Z,1.25
2023-03-16T13:31:01.484Z,0.90
2023-03-16T13:33:33.246Z,1.58
2023-03-16T13:36:01.062Z,1.42
2023-03-16T13:38:29.289Z,1.42
2023-03-16T13:41:01.801Z,1.20
2023-03-16T13:43:33.221Z,1.50
2023-03-16T13:46:01.513Z,1.60
2023-03-16T13:48:28.776Z,1.23
2023-03-16T13:50:58.106Z,1.10
2023-03-16T13:53:29.519Z,1.50
2023-03-16T13:55:59.058Z,1.48
2023-03-16T13:58:35.605Z,1.33
2023-03-16T14:01:05.710Z,1.70
2023-03-16T14:03:39.249Z,1.05
2023-03-16T14:06:07.611Z,1.02
2023-03-16T14:08:34.893Z,1.25
2023-03-16T14:11:03.943Z,1.90
2023-03-16T14:13:33.178Z,1.40
2023-03-16T14:16:13.557Z,1.27
2023-03-16T14:18:42.583Z,1.58
2023-03-16T14:21:30.346Z,1.23
2023-03-16T14:24:02.594Z,2.00
2023-03-16T14:26:43.592Z,1.35
2023-03-16T14:29:25.118Z,1.98
2023-03-16T14:31:52.843Z,1.70
2023-03-16T14:34:39.843Z,1.60
2023-03-16T14:37:14.991Z,1.48
2023-03-16T14:39:42.608Z,0.77
2023-03-16T14:42:16.163Z,0.82
2023-03-16T14:44:44.354Z,1.00
2023-03-16T14:47:22.957Z,1.00
2023-03-16T14:49:51.166Z,0.98
2023-03-16T14:52:27.456Z,1.27
2023-03-16T14:54:55.504Z,1.25
2023-03-16T14:57:22.970Z,0.98
2023-03-16T14:59:50.090Z,0.77
2023-03-16T15:02:29.835Z,0.70
2023-03-16T15:04:58.089Z,0.90
2023-03-16T15:07:29.722Z,1.00
2023-03-16T15:10:15.926Z,1.00
2023-03-16T15:12:50.818Z,0.88
2023-03-16T15:15:20.216Z,0.70
2023-03-16T15:17:47.336Z,0.90
2023-03-16T15:20:17.899Z,0.85
2023-03-16T15:22:46.454Z,1.00
2023-03-16T15:25:37.880Z,1.17
2023-03-16T15:28:26.272Z,0.80
2023-03-16T15:30:56.743Z,0.52
2023-03-16T15:33:24.372Z,0.75
2023-03-16T15:35:53.141Z,0.68
2023-03-16T15:38:36.447Z,0.75
2023-03-16T15:41:03.764Z,0.90
2023-03-16T15:43:32.197Z,1.02
2023-03-16T15:46:02.447Z,0.60
2023-03-16T15:48:29.634Z,0.70
2023-03-16T15:51:22.235Z,1.20
2023-03-16T15:53:58.737Z,0.80
2023-03-16T15:56:33.557Z,0.82
2023-03-16T15:59:06.266Z,1.38
2023-03-16T16:01:49.475Z,0.90
2023-03-16T16:04:20.059Z,1.00
2023-03-16T16:09:15.640Z,0.82
2023-03-16T16:11:42.998Z,0.60
2023-03-16T16:14:19.409Z,1.27
2023-03-16T16:16:46.794Z,0.98
2023-03-16T16:19:15.760Z,0.90
2023-03-16T16:21:44.128Z,1.02
2023-03-16T16:24:11.633Z,0.90
2023-03-16T16:26:55.136Z,1.60
2023-03-16T16:29:25.848Z,1.80
2023-03-16T16:31:53.439Z,1.02
2023-03-16T16:34:24.968Z,1.40
2023-03-16T16:36:56.329Z,1.08
2023-03-16T16:39:23.938Z,1.10
2023-03-16T16:41:54.850Z,1.20
2023-03-16T16:44:27.567Z,1.05
2023-03-16T16:46:55.156Z,1.17
2023-03-16T16:49:31.303Z,0.95
2023-03-16T16:51:59.074Z,1.20
2023-03-16T16:54:29.244Z,1.02
2023-03-16T16:56:57.895Z,1.42
2023-03-16T16:59:37.143Z,1.30
2023-03-16T17:02:38.787Z,1.35
2023-03-16T17:05:08.531Z,1.25
2023-03-16T17:07:36.364Z,1.83
2023-03-16T17:10:04.309Z,1.58
2023-03-16T17:12:31.618Z,1.27
2023-03-16T17:14:58.896Z,1.48
2023-03-16T17:17:27.545Z,1.73
2023-03-16T17:19:54.715Z,1.55
2023-03-16T17:22:26.705Z,1.67
2023-03-16T17:24:54.330Z,2.13
2023-03-16T17:27:29.555Z,2.30
2023-03-16T17:29:57.889Z,2.00
2023-03-16T17:32:25.701Z,2.08
2023-03-16T17:34:53.213Z,2.13
2023-03-16T17:37:22.347Z,1.70
2023-03-16T17:39:49.600Z,1.67
2023-03-16T17:42:19.115Z,1.90
2023-03-16T17:44:48.793Z,1.50
2023-03-16T17:47:19.163Z,1.50
2023-03-16T17:49:49.203Z,1.75
2023-03-16T17:52:27.974Z,1.27
2023-03-16T17:54:55.268Z,1.52
2023-03-16T17:57:28.777Z,1.50
2023-03-16T17:59:56.555Z,1.20
2023-03-16T18:02:38.534Z,1.65
2023-03-16T18:05:08.918Z,1.67
2023-03-16T18:07:36.888Z,1.45
2023-03-16T18:10:04.228Z,1.33
2023-03-16T18:12:31.884Z,1.38
2023-03-16T18:14:58.917Z,1.60
2023-03-16T18:17:30.306Z,1.27
2023-03-16T18:19:57.933Z,1.45
2023-03-16T18:22:25.902Z,1.30
2023-03-16T18:24:54.210Z,1.40
2023-03-16T18:27:22.506Z,1.27
2023-03-16T18:29:49.617Z,1.38
2023-03-16T18:32:24.116Z,1.30
2023-03-16T18:34:52.759Z,1.08
2023-03-16T18:37:23.230Z,1.27
2023-03-16T18:39:52.166Z,1.27
2023-03-16T18:42:21.873Z,1.30
2023-03-16T18:44:49.740Z,1.40
2023-03-16T18:47:22.860Z,1.25
2023-03-16T18:49:54.141Z,1.08
2023-03-16T18:52:28.700Z,1.27
2023-03-16T18:54:57.878Z,1.38
2023-03-16T18:57:29.020Z,1.13
2023-03-16T18:59:56.500Z,1.50
2023-03-16T19:02:28.864Z,1.02
2023-03-16T19:05:01.197Z,1.30
2023-03-16T19:07:36.300Z,1.30
2023-03-16T19:10:12.660Z,0.90
2023-03-16T19:12:39.722Z,1.25
2023-03-16T19:15:35.818Z,1.05
2023-03-16T19:18:03.035Z,1.05
2023-03-16T19:20:33.282Z,1.10
2023-03-16T19:23:30.634Z,1.02
2023-03-16T19:25:58.649Z,1.55
2023-03-16T19:28:34.328Z,1.40
2023-03-16T19:31:22.079Z,1.40
2023-03-16T19:33:50.232Z,1.63
2023-03-16T19:36:25.643Z,1.63
2023-03-16T19:38:53.590Z,1.50
2023-03-16T19:41:23.034Z,1.40
2023-03-16T19:43:52.474Z,1.33
2023-03-16T19:46:19.983Z,1.48
2023-03-16T19:48:47.916Z,1.50
2023-03-16T19:51:17.807Z,2.05
2023-03-16T19:53:45.208Z,1.38
2023-03-16T19:56:20.644Z,1.58
2023-03-16T19:58:50.912Z,1.35
2023-03-16T20:01:19.847Z,1.73
2023-03-16T20:03:48.841Z,1.60
2023-03-16T20:06:18.534Z,1.35
2023-03-16T20:08:47.285Z,1.63
2023-03-16T20:11:27.868Z,2.30
2023-03-16T20:13:56.496Z,1.30
2023-03-16T20:16:30.205Z,1.60
2023-03-16T20:19:00.640Z,1.15
2023-03-16T20:21:28.675Z,1.33
2023-03-16T20:23:56.744Z,1.05
2023-03-16T20:26:27.905Z,1.20
2023-03-16T20:28:55.214Z,1.30
2023-03-16T20:31:26.298Z,1.20
2023-03-16T20:33:54.887Z,1.15
2023-03-16T20:36:23.514Z,1.10
2023-03-16T20:38:50.856Z,1.10
2023-03-16T20:41:26.797Z,1.45
2023-03-16T20:43:55.558Z,1.77
2023-03-16T20:46:26.560Z,1.83
2023-03-16T20:48:54.132Z,1.80
2023-03-16T20:51:21.840Z,1.65
2023-03-16T20:53:49.657Z,1.63
2023-03-16T20:56:26.799Z,1.83
2023-03-16T20:58:56.274Z,2.03
2023-03-16T21:01:24.767Z,1.83
2023-03-16T21:03:55.491Z,1.70
2023-03-16T21:06:28.619Z,1.50
2023-03-16T21:08:57.782Z,2.03
2023-03-16T21:11:30.660Z,1.60
2023-03-16T21:13:58.100Z,1.70
2023-03-16T21:16:25.423Z,1.80
2023-03-16T21:18:52.600Z,1.33
2023-03-16T21:21:20.654Z,1.80
2023-03-16T21:23:47.902Z,1.55
2023-03-16T21:26:23.950Z,1.60
2023-03-16T21:29:00.613Z,1.80
2023-03-16T21:31:28.149Z,2.00
2023-03-16T21:33:56.390Z,1.55
2023-03-16T21:36:26.744Z,3.08
2023-03-16T21:38:55.329Z,2.60
2023-03-16T21:41:23.144Z,2.33
2023-03-16T21:43:50.338Z,2.67
2023-03-16T21:46:23.484Z,2.30
2023-03-16T21:48:55.793Z,1.90
2023-03-16T21:51:29.254Z,1.60
2023-03-16T21:53:56.482Z,1.52
2023-03-16T21:56:26.151Z,1.60
2023-03-16T21:58:54.285Z,1.58
2023-03-16T22:01:29.623Z,1.75
2023-03-16T22:04:02.008Z,1.90
2023-03-16T22:06:29.421Z,1.92
2023-03-16T22:08:58.471Z,1.58
2023-03-16T22:11:30.978Z,1.77
2023-03-16T22:13:59.671Z,1.60
2023-03-16T22:16:31.729Z,1.52
2023-03-16T22:18:59.066Z,1.73
2023-03-16T22:21:32.846Z,1.90
2023-03-16T22:24:01.380Z,1.80
2023-03-16T22:26:29.796Z,1.55
2023-03-16T22:28:59.916Z,1.73
2023-03-16T22:31:33.900Z,1.98
2023-03-16T22:34:03.020Z,1.80
2023-03-16T22:36:32.511Z,1.70
2023-03-16T22:39:08.290Z,2.00
2023-03-16T22:41:35.533Z,1.75
2023-03-16T22:44:02.994Z,1.90
2023-03-16T22:46:30.522Z,1.80
2023-03-16T22:48:58.063Z,1.75
2023-03-16T22:51:38.567Z,1.17
2023-03-16T22:54:09.685Z,1.92
2023-03-16T22:56:37.485Z,1.90
2023-03-16T22:59:11.432Z,2.08
2023-03-16T23:01:46.055Z,2.17
2023-03-16T23:04:21.314Z,2.13
2023-03-16T23:06:53.176Z,2.00
2023-03-16T23:09:22.105Z,1.90
2023-03-16T23:11:53.954Z,1.98
2023-03-16T23:14:28.593Z,1.90
2023-03-16T23:16:55.827Z,1.85
2023-03-16T23:19:34.465Z,2.40
2023-03-16T23:22:05.190Z,2.20
2023-03-16T23:24:33.978Z,1.90
2023-03-16T23:27:02.333Z,1.60
2023-03-16T23:29:30.217Z,1.83
2023-03-16T23:31:58.005Z,1.85
2023-03-16T23:34:26.417Z,1.90
2023-03-16T23:36:53.705Z,1.77
2023-03-16T23:39:21.127Z,2.10
2023-03-16T23:41:50.023Z,1.73
2023-03-16T23:44:21.061Z,1.60
2023-03-16T23:46:48.508Z,1.90
2023-03-16T23:49:27.438Z,1.83
2023-03-16T23:51:57.975Z,1.85
2023-03-16T23:54:28.530Z,1.73
2023-03-16T23:59:23.762Z,1.58
